METAR Data
IDs: Format: Raw Decoded Include TAF

Data at: 1346 UTC 20 Oct 2021

EHLW 201343Z AUTO 23019KT 9999 FEW016 SCT020 BKN028 17/14 Q0997 WHT